sensor_id;sensor_type;location;lat;lon;timestamp;P1;durP1;ratioP1;P2;durP2;ratioP2
43670;SDS011;29267;50.906;7.248;2022-12-04T00:01:02;26.60;;;12.05;;
43670;SDS011;29267;50.906;7.248;2022-12-04T00:03:31;25.95;;;12.15;;
43670;SDS011;29267;50.906;7.248;2022-12-04T00:06:10;24.80;;;11.20;;
43670;SDS011;29267;50.906;7.248;2022-12-04T00:08:42;29.85;;;12.35;;
43670;SDS011;29267;50.906;7.248;2022-12-04T00:11:08;25.92;;;11.38;;
43670;SDS011;29267;50.906;7.248;2022-12-04T00:13:35;28.83;;;12.27;;
43670;SDS011;29267;50.906;7.248;2022-12-04T00:16:10;28.15;;;12.43;;
43670;SDS011;29267;50.906;7.248;2022-12-04T00:18:39;27.55;;;11.77;;
43670;SDS011;29267;50.906;7.248;2022-12-04T00:21:06;27.88;;;10.82;;
43670;SDS011;29267;50.906;7.248;2022-12-04T00:23:33;22.77;;;10.32;;
43670;SDS011;29267;50.906;7.248;2022-12-04T00:26:01;31.60;;;13.00;;
43670;SDS011;29267;50.906;7.248;2022-12-04T00:28:31;28.38;;;11.73;;
43670;SDS011;29267;50.906;7.248;2022-12-04T00:30:57;28.05;;;12.45;;
43670;SDS011;29267;50.906;7.248;2022-12-04T00:33:23;26.75;;;12.32;;
43670;SDS011;29267;50.906;7.248;2022-12-04T00:35:55;28.35;;;11.32;;
43670;SDS011;29267;50.906;7.248;2022-12-04T00:38:22;28.25;;;11.73;;
43670;SDS011;29267;50.906;7.248;2022-12-04T00:40:48;27.85;;;12.23;;
43670;SDS011;29267;50.906;7.248;2022-12-04T00:43:14;24.90;;;10.27;;
43670;SDS011;29267;50.906;7.248;2022-12-04T00:45:40;31.85;;;12.77;;
43670;SDS011;29267;50.906;7.248;2022-12-04T00:48:06;27.00;;;11.32;;
43670;SDS011;29267;50.906;7.248;2022-12-04T00:50:31;26.67;;;12.63;;
43670;SDS011;29267;50.906;7.248;2022-12-04T00:52:57;24.83;;;11.75;;
43670;SDS011;29267;50.906;7.248;2022-12-04T00:55:23;25.15;;;10.82;;
43670;SDS011;29267;50.906;7.248;2022-12-04T00:57:48;28.08;;;10.32;;
43670;SDS011;29267;50.906;7.248;2022-12-04T01:00:14;26.02;;;11.48;;
43670;SDS011;29267;50.906;7.248;2022-12-04T01:02:40;28.65;;;11.88;;
43670;SDS011;29267;50.906;7.248;2022-12-04T01:05:05;20.85;;;9.40;;
43670;SDS011;29267;50.906;7.248;2022-12-04T01:07:31;24.65;;;10.55;;
43670;SDS011;29267;50.906;7.248;2022-12-04T01:09:57;31.58;;;11.55;;
43670;SDS011;29267;50.906;7.248;2022-12-04T01:12:22;24.80;;;10.40;;
43670;SDS011;29267;50.906;7.248;2022-12-04T01:14:48;23.25;;;10.88;;
43670;SDS011;29267;50.906;7.248;2022-12-04T01:17:14;25.50;;;10.52;;
43670;SDS011;29267;50.906;7.248;2022-12-04T01:19:40;23.10;;;11.00;;
43670;SDS011;29267;50.906;7.248;2022-12-04T01:22:05;23.63;;;10.18;;
43670;SDS011;29267;50.906;7.248;2022-12-04T01:24:31;23.27;;;10.07;;
43670;SDS011;29267;50.906;7.248;2022-12-04T01:26:57;14.85;;;8.02;;
43670;SDS011;29267;50.906;7.248;2022-12-04T01:29:22;21.70;;;9.45;;
43670;SDS011;29267;50.906;7.248;2022-12-04T01:31:48;18.58;;;9.13;;
43670;SDS011;29267;50.906;7.248;2022-12-04T01:34:13;18.75;;;8.45;;
43670;SDS011;29267;50.906;7.248;2022-12-04T01:36:39;20.83;;;8.80;;
43670;SDS011;29267;50.906;7.248;2022-12-04T01:39:04;19.98;;;8.38;;
43670;SDS011;29267;50.906;7.248;2022-12-04T01:41:30;18.45;;;8.32;;
43670;SDS011;29267;50.906;7.248;2022-12-04T01:46:37;24.40;;;9.23;;
43670;SDS011;29267;50.906;7.248;2022-12-04T01:49:04;16.35;;;7.60;;
43670;SDS011;29267;50.906;7.248;2022-12-04T01:51:38;15.13;;;7.07;;
43670;SDS011;29267;50.906;7.248;2022-12-04T01:54:09;18.92;;;7.88;;
43670;SDS011;29267;50.906;7.248;2022-12-04T01:56:40;14.23;;;6.40;;
43670;SDS011;29267;50.906;7.248;2022-12-04T01:59:14;19.83;;;8.23;;
43670;SDS011;29267;50.906;7.248;2022-12-04T02:01:48;19.35;;;7.85;;
43670;SDS011;29267;50.906;7.248;2022-12-04T02:04:19;17.67;;;8.52;;
43670;SDS011;29267;50.906;7.248;2022-12-04T02:06:45;15.00;;;7.55;;
43670;SDS011;29267;50.906;7.248;2022-12-04T02:09:11;16.45;;;7.10;;
43670;SDS011;29267;50.906;7.248;2022-12-04T02:11:45;15.48;;;7.20;;
43670;SDS011;29267;50.906;7.248;2022-12-04T02:19:37;15.93;;;7.38;;
43670;SDS011;29267;50.906;7.248;2022-12-04T02:22:22;16.48;;;6.95;;
43670;SDS011;29267;50.906;7.248;2022-12-04T02:28:21;14.40;;;6.20;;
43670;SDS011;29267;50.906;7.248;2022-12-04T02:30:46;13.43;;;5.78;;
43670;SDS011;29267;50.906;7.248;2022-12-04T02:33:18;17.08;;;7.88;;
43670;SDS011;29267;50.906;7.248;2022-12-04T02:35:48;16.58;;;7.50;;
43670;SDS011;29267;50.906;7.248;2022-12-04T02:38:23;15.52;;;7.15;;
43670;SDS011;29267;50.906;7.248;2022-12-04T02:41:02;15.75;;;7.25;;
43670;SDS011;29267;50.906;7.248;2022-12-04T02:43:37;16.83;;;7.43;;
43670;SDS011;29267;50.906;7.248;2022-12-04T02:46:28;16.60;;;6.90;;
43670;SDS011;29267;50.906;7.248;2022-12-04T02:49:00;17.30;;;7.38;;
43670;SDS011;29267;50.906;7.248;2022-12-04T02:51:28;13.43;;;6.60;;
43670;SDS011;29267;50.906;7.248;2022-12-04T02:53:57;13.82;;;6.63;;
43670;SDS011;29267;50.906;7.248;2022-12-04T02:56:29;14.20;;;6.93;;
43670;SDS011;29267;50.906;7.248;2022-12-04T02:59:02;19.02;;;7.93;;
43670;SDS011;29267;50.906;7.248;2022-12-04T03:01:33;12.77;;;5.47;;
43670;SDS011;29267;50.906;7.248;2022-12-04T03:06:32;14.05;;;5.68;;
43670;SDS011;29267;50.906;7.248;2022-12-04T03:12:22;13.65;;;6.63;;
43670;SDS011;29267;50.906;7.248;2022-12-04T03:15:04;14.13;;;7.50;;
43670;SDS011;29267;50.906;7.248;2022-12-04T03:17:57;15.27;;;7.05;;
43670;SDS011;29267;50.906;7.248;2022-12-04T03:20:32;15.25;;;7.63;;
43670;SDS011;29267;50.906;7.248;2022-12-04T03:23:02;15.68;;;7.43;;
43670;SDS011;29267;50.906;7.248;2022-12-04T03:28:06;14.05;;;5.85;;
43670;SDS011;29267;50.906;7.248;2022-12-04T03:30:40;17.63;;;8.32;;
43670;SDS011;29267;50.906;7.248;2022-12-04T03:33:17;16.83;;;7.40;;
43670;SDS011;29267;50.906;7.248;2022-12-04T03:35:51;14.68;;;6.25;;
43670;SDS011;29267;50.906;7.248;2022-12-04T03:41:08;17.63;;;6.90;;
43670;SDS011;29267;50.906;7.248;2022-12-04T03:46:41;13.82;;;6.75;;
43670;SDS011;29267;50.906;7.248;2022-12-04T03:49:38;17.27;;;6.95;;
43670;SDS011;29267;50.906;7.248;2022-12-04T03:52:20;13.02;;;6.82;;
43670;SDS011;29267;50.906;7.248;2022-12-04T03:55:08;11.50;;;5.75;;
43670;SDS011;29267;50.906;7.248;2022-12-04T03:57:40;12.07;;;6.70;;
43670;SDS011;29267;50.906;7.248;2022-12-04T04:00:13;16.58;;;6.97;;
43670;SDS011;29267;50.906;7.248;2022-12-04T04:02:46;12.50;;;5.97;;
43670;SDS011;29267;50.906;7.248;2022-12-04T04:05:15;11.95;;;6.10;;
43670;SDS011;29267;50.906;7.248;2022-12-04T04:07:45;14.02;;;7.07;;
43670;SDS011;29267;50.906;7.248;2022-12-04T04:10:16;11.88;;;6.72;;
43670;SDS011;29267;50.906;7.248;2022-12-04T04:12:54;15.50;;;6.95;;
43670;SDS011;29267;50.906;7.248;2022-12-04T04:15:43;14.13;;;7.85;;
43670;SDS011;29267;50.906;7.248;2022-12-04T04:18:33;13.65;;;6.43;;
43670;SDS011;29267;50.906;7.248;2022-12-04T04:21:20;15.30;;;6.80;;
43670;SDS011;29267;50.906;7.248;2022-12-04T04:24:09;13.32;;;6.60;;
43670;SDS011;29267;50.906;7.248;2022-12-04T04:26:53;12.50;;;6.15;;
43670;SDS011;29267;50.906;7.248;2022-12-04T04:29:19;14.38;;;7.13;;
43670;SDS011;29267;50.906;7.248;2022-12-04T04:31:47;12.65;;;6.68;;
43670;SDS011;29267;50.906;7.248;2022-12-04T04:34:27;11.75;;;5.82;;
43670;SDS011;29267;50.906;7.248;2022-12-04T04:36:58;16.52;;;7.22;;
43670;SDS011;29267;50.906;7.248;2022-12-04T04:42:01;12.18;;;6.13;;
43670;SDS011;29267;50.906;7.248;2022-12-04T04:44:44;15.13;;;6.13;;
43670;SDS011;29267;50.906;7.248;2022-12-04T04:47:12;13.98;;;6.07;;
43670;SDS011;29267;50.906;7.248;2022-12-04T04:49:43;12.65;;;6.75;;
43670;SDS011;29267;50.906;7.248;2022-12-04T04:52:11;12.93;;;6.30;;
43670;SDS011;29267;50.906;7.248;2022-12-04T04:54:37;15.98;;;7.22;;
43670;SDS011;29267;50.906;7.248;2022-12-04T04:57:03;11.13;;;5.72;;
43670;SDS011;29267;50.906;7.248;2022-12-04T04:59:29;13.30;;;7.00;;
43670;SDS011;29267;50.906;7.248;2022-12-04T05:01:54;12.65;;;6.72;;
43670;SDS011;29267;50.906;7.248;2022-12-04T05:04:20;12.88;;;7.10;;
43670;SDS011;29267;50.906;7.248;2022-12-04T05:06:46;15.27;;;6.57;;
43670;SDS011;29267;50.906;7.248;2022-12-04T05:09:12;12.75;;;6.60;;
43670;SDS011;29267;50.906;7.248;2022-12-04T05:11:38;14.82;;;6.97;;
43670;SDS011;29267;50.906;7.248;2022-12-04T05:14:04;13.60;;;6.22;;
43670;SDS011;29267;50.906;7.248;2022-12-04T05:16:30;15.98;;;7.35;;
43670;SDS011;29267;50.906;7.248;2022-12-04T05:18:56;17.45;;;7.15;;
43670;SDS011;29267;50.906;7.248;2022-12-04T05:21:41;15.07;;;6.53;;
43670;SDS011;29267;50.906;7.248;2022-12-04T05:24:06;12.23;;;6.53;;
43670;SDS011;29267;50.906;7.248;2022-12-04T05:26:33;12.25;;;6.47;;
43670;SDS011;29267;50.906;7.248;2022-12-04T05:28:58;15.95;;;7.15;;
43670;SDS011;29267;50.906;7.248;2022-12-04T05:31:24;14.00;;;6.28;;
43670;SDS011;29267;50.906;7.248;2022-12-04T05:33:49;14.02;;;6.60;;
43670;SDS011;29267;50.906;7.248;2022-12-04T05:36:15;16.23;;;7.65;;
43670;SDS011;29267;50.906;7.248;2022-12-04T05:38:40;13.93;;;6.57;;
43670;SDS011;29267;50.906;7.248;2022-12-04T05:41:06;14.90;;;7.70;;
43670;SDS011;29267;50.906;7.248;2022-12-04T05:43:32;13.68;;;6.72;;
43670;SDS011;29267;50.906;7.248;2022-12-04T05:46:02;14.75;;;6.32;;
43670;SDS011;29267;50.906;7.248;2022-12-04T05:48:29;13.55;;;7.35;;
43670;SDS011;29267;50.906;7.248;2022-12-04T05:50:55;15.23;;;6.70;;
43670;SDS011;29267;50.906;7.248;2022-12-04T05:53:21;15.10;;;7.38;;
43670;SDS011;29267;50.906;7.248;2022-12-04T05:55:56;15.48;;;7.18;;
43670;SDS011;29267;50.906;7.248;2022-12-04T05:58:23;14.45;;;6.97;;
43670;SDS011;29267;50.906;7.248;2022-12-04T06:00:49;13.70;;;6.68;;
43670;SDS011;29267;50.906;7.248;2022-12-04T06:03:15;12.98;;;6.47;;
43670;SDS011;29267;50.906;7.248;2022-12-04T06:05:41;15.40;;;6.68;;
43670;SDS011;29267;50.906;7.248;2022-12-04T06:08:07;14.18;;;6.32;;
43670;SDS011;29267;50.906;7.248;2022-12-04T06:10:32;12.05;;;6.20;;
43670;SDS011;29267;50.906;7.248;2022-12-04T06:12:58;12.55;;;6.22;;
43670;SDS011;29267;50.906;7.248;2022-12-04T06:15:23;16.33;;;7.88;;
43670;SDS011;29267;50.906;7.248;2022-12-04T06:17:49;13.85;;;6.90;;
43670;SDS011;29267;50.906;7.248;2022-12-04T06:20:14;13.82;;;6.78;;
43670;SDS011;29267;50.906;7.248;2022-12-04T06:22:40;13.95;;;6.88;;
43670;SDS011;29267;50.906;7.248;2022-12-04T06:25:06;15.02;;;6.80;;
43670;SDS011;29267;50.906;7.248;2022-12-04T06:27:32;12.60;;;6.03;;
43670;SDS011;29267;50.906;7.248;2022-12-04T06:29:58;15.10;;;6.45;;
43670;SDS011;29267;50.906;7.248;2022-12-04T06:32:23;15.60;;;6.00;;
43670;SDS011;29267;50.906;7.248;2022-12-04T06:34:50;12.45;;;6.00;;
43670;SDS011;29267;50.906;7.248;2022-12-04T06:37:19;11.85;;;6.18;;
43670;SDS011;29267;50.906;7.248;2022-12-04T06:39:46;14.05;;;6.55;;
43670;SDS011;29267;50.906;7.248;2022-12-04T06:42:12;12.70;;;7.03;;
43670;SDS011;29267;50.906;7.248;2022-12-04T06:44:37;13.93;;;6.68;;
43670;SDS011;29267;50.906;7.248;2022-12-04T06:47:03;14.95;;;6.82;;
43670;SDS011;29267;50.906;7.248;2022-12-04T06:49:29;12.43;;;6.47;;
43670;SDS011;29267;50.906;7.248;2022-12-04T06:51:54;13.13;;;6.03;;
43670;SDS011;29267;50.906;7.248;2022-12-04T06:54:20;16.45;;;6.63;;
43670;SDS011;29267;50.906;7.248;2022-12-04T06:56:47;13.95;;;6.85;;
43670;SDS011;29267;50.906;7.248;2022-12-04T06:59:13;14.35;;;6.25;;
43670;SDS011;29267;50.906;7.248;2022-12-04T07:01:39;13.00;;;6.40;;
43670;SDS011;29267;50.906;7.248;2022-12-04T07:04:05;17.10;;;7.93;;
43670;SDS011;29267;50.906;7.248;2022-12-04T07:06:31;11.88;;;5.53;;
43670;SDS011;29267;50.906;7.248;2022-12-04T07:09:00;16.60;;;7.75;;
43670;SDS011;29267;50.906;7.248;2022-12-04T07:11:38;15.45;;;7.07;;
43670;SDS011;29267;50.906;7.248;2022-12-04T07:14:04;12.88;;;6.13;;
43670;SDS011;29267;50.906;7.248;2022-12-04T07:16:30;13.18;;;6.60;;
43670;SDS011;29267;50.906;7.248;2022-12-04T07:18:56;12.98;;;6.40;;
43670;SDS011;29267;50.906;7.248;2022-12-04T07:21:23;16.90;;;6.82;;
43670;SDS011;29267;50.906;7.248;2022-12-04T07:23:51;14.98;;;6.65;;
43670;SDS011;29267;50.906;7.248;2022-12-04T07:26:18;13.45;;;6.47;;
43670;SDS011;29267;50.906;7.248;2022-12-04T07:28:44;14.00;;;6.43;;
43670;SDS011;29267;50.906;7.248;2022-12-04T07:31:11;13.73;;;6.82;;
43670;SDS011;29267;50.906;7.248;2022-12-04T07:33:39;16.02;;;7.50;;
43670;SDS011;29267;50.906;7.248;2022-12-04T07:36:06;15.88;;;7.18;;
43670;SDS011;29267;50.906;7.248;2022-12-04T07:38:33;16.00;;;6.07;;
43670;SDS011;29267;50.906;7.248;2022-12-04T07:40:59;13.65;;;6.60;;
43670;SDS011;29267;50.906;7.248;2022-12-04T07:43:27;16.60;;;6.82;;
43670;SDS011;29267;50.906;7.248;2022-12-04T07:45:53;14.20;;;7.00;;
43670;SDS011;29267;50.906;7.248;2022-12-04T07:48:19;11.43;;;6.18;;
43670;SDS011;29267;50.906;7.248;2022-12-04T07:50:45;16.30;;;7.22;;
43670;SDS011;29267;50.906;7.248;2022-12-04T07:53:11;15.05;;;6.80;;
43670;SDS011;29267;50.906;7.248;2022-12-04T07:55:37;18.58;;;7.47;;
43670;SDS011;29267;50.906;7.248;2022-12-04T07:58:03;12.40;;;6.57;;
43670;SDS011;29267;50.906;7.248;2022-12-04T08:00:28;17.35;;;7.47;;
43670;SDS011;29267;50.906;7.248;2022-12-04T08:02:54;17.67;;;7.80;;
43670;SDS011;29267;50.906;7.248;2022-12-04T08:05:20;13.43;;;6.63;;
43670;SDS011;29267;50.906;7.248;2022-12-04T08:07:45;13.68;;;6.93;;
43670;SDS011;29267;50.906;7.248;2022-12-04T08:10:11;15.38;;;7.65;;
43670;SDS011;29267;50.906;7.248;2022-12-04T08:12:37;15.55;;;7.22;;
43670;SDS011;29267;50.906;7.248;2022-12-04T08:15:03;13.80;;;6.70;;
43670;SDS011;29267;50.906;7.248;2022-12-04T08:17:29;13.52;;;6.03;;
43670;SDS011;29267;50.906;7.248;2022-12-04T08:19:55;13.95;;;7.03;;
43670;SDS011;29267;50.906;7.248;2022-12-04T08:22:21;16.48;;;6.55;;
43670;SDS011;29267;50.906;7.248;2022-12-04T08:24:46;12.85;;;7.03;;
43670;SDS011;29267;50.906;7.248;2022-12-04T08:27:12;19.00;;;8.38;;
43670;SDS011;29267;50.906;7.248;2022-12-04T08:29:37;14.15;;;6.55;;
43670;SDS011;29267;50.906;7.248;2022-12-04T08:32:03;20.88;;;7.85;;
43670;SDS011;29267;50.906;7.248;2022-12-04T08:34:29;13.75;;;7.43;;
43670;SDS011;29267;50.906;7.248;2022-12-04T08:36:54;15.50;;;7.28;;
43670;SDS011;29267;50.906;7.248;2022-12-04T08:39:20;17.73;;;6.95;;
43670;SDS011;29267;50.906;7.248;2022-12-04T08:41:46;17.17;;;7.22;;
43670;SDS011;29267;50.906;7.248;2022-12-04T08:44:11;15.25;;;7.05;;
43670;SDS011;29267;50.906;7.248;2022-12-04T08:46:37;15.15;;;7.45;;
43670;SDS011;29267;50.906;7.248;2022-12-04T08:49:03;13.27;;;6.95;;
43670;SDS011;29267;50.906;7.248;2022-12-04T08:51:29;16.02;;;8.35;;
43670;SDS011;29267;50.906;7.248;2022-12-04T08:53:57;16.30;;;7.45;;
43670;SDS011;29267;50.906;7.248;2022-12-04T08:56:25;15.35;;;7.05;;
43670;SDS011;29267;50.906;7.248;2022-12-04T08:58:52;15.13;;;7.07;;
43670;SDS011;29267;50.906;7.248;2022-12-04T09:01:19;17.80;;;7.85;;
43670;SDS011;29267;50.906;7.248;2022-12-04T09:03:44;16.35;;;8.15;;
43670;SDS011;29267;50.906;7.248;2022-12-04T09:06:11;16.33;;;7.60;;
43670;SDS011;29267;50.906;7.248;2022-12-04T09:08:38;13.23;;;7.28;;
43670;SDS011;29267;50.906;7.248;2022-12-04T09:11:05;16.80;;;7.53;;
43670;SDS011;29267;50.906;7.248;2022-12-04T09:13:33;18.08;;;7.57;;
43670;SDS011;29267;50.906;7.248;2022-12-04T09:16:01;12.75;;;6.50;;
43670;SDS011;29267;50.906;7.248;2022-12-04T09:18:28;14.75;;;7.88;;
43670;SDS011;29267;50.906;7.248;2022-12-04T09:20:58;14.45;;;8.00;;
43670;SDS011;29267;50.906;7.248;2022-12-04T09:23:25;17.08;;;7.18;;
43670;SDS011;29267;50.906;7.248;2022-12-04T09:25:52;17.55;;;8.32;;
43670;SDS011;29267;50.906;7.248;2022-12-04T09:28:17;15.23;;;7.55;;
43670;SDS011;29267;50.906;7.248;2022-12-04T09:30:43;14.68;;;7.75;;
43670;SDS011;29267;50.906;7.248;2022-12-04T09:33:09;15.80;;;7.32;;
43670;SDS011;29267;50.906;7.248;2022-12-04T09:35:36;19.73;;;7.70;;
43670;SDS011;29267;50.906;7.248;2022-12-04T09:38:03;15.93;;;7.45;;
43670;SDS011;29267;50.906;7.248;2022-12-04T09:40:29;16.55;;;7.65;;
43670;SDS011;29267;50.906;7.248;2022-12-04T09:43:08;16.20;;;6.97;;
43670;SDS011;29267;50.906;7.248;2022-12-04T09:45:50;18.13;;;7.40;;
43670;SDS011;29267;50.906;7.248;2022-12-04T09:48:19;16.73;;;7.22;;
43670;SDS011;29267;50.906;7.248;2022-12-04T09:50:50;13.63;;;7.50;;
43670;SDS011;29267;50.906;7.248;2022-12-04T09:53:18;15.95;;;7.68;;
43670;SDS011;29267;50.906;7.248;2022-12-04T09:56:05;14.90;;;7.20;;
43670;SDS011;29267;50.906;7.248;2022-12-04T10:01:15;13.20;;;6.50;;
43670;SDS011;29267;50.906;7.248;2022-12-04T10:03:45;14.05;;;7.55;;
43670;SDS011;29267;50.906;7.248;2022-12-04T10:06:13;13.93;;;6.93;;
43670;SDS011;29267;50.906;7.248;2022-12-04T10:08:41;14.45;;;6.65;;
43670;SDS011;29267;50.906;7.248;2022-12-04T10:11:14;12.70;;;7.07;;
43670;SDS011;29267;50.906;7.248;2022-12-04T10:16:37;16.80;;;6.80;;
43670;SDS011;29267;50.906;7.248;2022-12-04T10:25:15;21.00;;;8.95;;
43670;SDS011;29267;50.906;7.248;2022-12-04T10:27:49;17.63;;;8.80;;
43670;SDS011;29267;50.906;7.248;2022-12-04T10:30:31;16.43;;;8.83;;
43670;SDS011;29267;50.906;7.248;2022-12-04T10:33:08;16.20;;;7.32;;
43670;SDS011;29267;50.906;7.248;2022-12-04T10:35:43;15.73;;;8.10;;
43670;SDS011;29267;50.906;7.248;2022-12-04T10:38:22;17.08;;;7.40;;
43670;SDS011;29267;50.906;7.248;2022-12-04T10:40:58;21.88;;;8.35;;
43670;SDS011;29267;50.906;7.248;2022-12-04T10:43:47;14.57;;;6.68;;
43670;SDS011;29267;50.906;7.248;2022-12-04T10:46:15;18.67;;;7.80;;
43670;SDS011;29267;50.906;7.248;2022-12-04T10:48:54;15.20;;;7.15;;
43670;SDS011;29267;50.906;7.248;2022-12-04T10:51:23;17.00;;;7.15;;
43670;SDS011;29267;50.906;7.248;2022-12-04T10:53:49;16.42;;;8.55;;
43670;SDS011;29267;50.906;7.248;2022-12-04T10:56:20;16.08;;;7.13;;
43670;SDS011;29267;50.906;7.248;2022-12-04T10:58:54;21.20;;;8.05;;
43670;SDS011;29267;50.906;7.248;2022-12-04T11:01:20;16.00;;;7.75;;
43670;SDS011;29267;50.906;7.248;2022-12-04T11:03:53;17.42;;;7.40;;
43670;SDS011;29267;50.906;7.248;2022-12-04T11:06:23;16.92;;;7.97;;
43670;SDS011;29267;50.906;7.248;2022-12-04T11:08:50;15.68;;;8.13;;
43670;SDS011;29267;50.906;7.248;2022-12-04T11:11:22;15.25;;;7.32;;
43670;SDS011;29267;50.906;7.248;2022-12-04T11:16:59;15.23;;;6.90;;
43670;SDS011;29267;50.906;7.248;2022-12-04T11:19:29;19.52;;;6.90;;
43670;SDS011;29267;50.906;7.248;2022-12-04T11:21:57;16.83;;;6.68;;
43670;SDS011;29267;50.906;7.248;2022-12-04T11:24:29;14.65;;;7.13;;
43670;SDS011;29267;50.906;7.248;2022-12-04T11:27:04;16.02;;;6.57;;
43670;SDS011;29267;50.906;7.248;2022-12-04T11:29:35;16.35;;;7.57;;
43670;SDS011;29267;50.906;7.248;2022-12-04T11:32:05;17.30;;;6.90;;
43670;SDS011;29267;50.906;7.248;2022-12-04T11:34:38;14.40;;;6.53;;
43670;SDS011;29267;50.906;7.248;2022-12-04T11:37:04;13.63;;;6.00;;
43670;SDS011;29267;50.906;7.248;2022-12-04T11:39:41;19.50;;;8.05;;
43670;SDS011;29267;50.906;7.248;2022-12-04T11:44:38;13.82;;;6.40;;
43670;SDS011;29267;50.906;7.248;2022-12-04T11:47:05;17.48;;;7.20;;
43670;SDS011;29267;50.906;7.248;2022-12-04T11:49:40;14.75;;;6.60;;
43670;SDS011;29267;50.906;7.248;2022-12-04T11:52:20;16.25;;;7.80;;
43670;SDS011;29267;50.906;7.248;2022-12-04T11:54:59;12.88;;;6.53;;
43670;SDS011;29267;50.906;7.248;2022-12-04T12:07:53;17.88;;;8.02;;
43670;SDS011;29267;50.906;7.248;2022-12-04T12:10:36;14.63;;;8.80;;
43670;SDS011;29267;50.906;7.248;2022-12-04T12:21:25;18.77;;;8.50;;
43670;SDS011;29267;50.906;7.248;2022-12-04T12:45:35;15.05;;;7.63;;
43670;SDS011;29267;50.906;7.248;2022-12-04T12:51:23;18.83;;;7.78;;
43670;SDS011;29267;50.906;7.248;2022-12-04T12:53:54;20.55;;;8.60;;
43670;SDS011;29267;50.906;7.248;2022-12-04T12:56:30;20.85;;;9.07;;
43670;SDS011;29267;50.906;7.248;2022-12-04T12:59:00;21.38;;;10.73;;
43670;SDS011;29267;50.906;7.248;2022-12-04T13:01:42;24.23;;;10.15;;
43670;SDS011;29267;50.906;7.248;2022-12-04T13:04:56;19.27;;;8.40;;
43670;SDS011;29267;50.906;7.248;2022-12-04T13:07:39;19.33;;;7.70;;
43670;SDS011;29267;50.906;7.248;2022-12-04T13:10:13;18.55;;;8.38;;
43670;SDS011;29267;50.906;7.248;2022-12-04T13:12:46;17.25;;;8.20;;
43670;SDS011;29267;50.906;7.248;2022-12-04T13:15:22;19.65;;;8.98;;
43670;SDS011;29267;50.906;7.248;2022-12-04T13:17:53;18.77;;;8.57;;
43670;SDS011;29267;50.906;7.248;2022-12-04T13:20:24;22.10;;;9.55;;
43670;SDS011;29267;50.906;7.248;2022-12-04T13:23:05;24.10;;;8.80;;
43670;SDS011;29267;50.906;7.248;2022-12-04T13:31:12;19.80;;;8.93;;
43670;SDS011;29267;50.906;7.248;2022-12-04T13:41:43;19.98;;;9.52;;
43670;SDS011;29267;50.906;7.248;2022-12-04T13:44:26;20.05;;;9.45;;
43670;SDS011;29267;50.906;7.248;2022-12-04T13:49:25;18.45;;;9.13;;
43670;SDS011;29267;50.906;7.248;2022-12-04T13:51:53;22.83;;;9.15;;
43670;SDS011;29267;50.906;7.248;2022-12-04T13:54:24;19.52;;;9.02;;
43670;SDS011;29267;50.906;7.248;2022-12-04T13:56:54;22.30;;;9.82;;
43670;SDS011;29267;50.906;7.248;2022-12-04T14:01:50;21.40;;;10.00;;
43670;SDS011;29267;50.906;7.248;2022-12-04T14:04:26;19.58;;;8.65;;
43670;SDS011;29267;50.906;7.248;2022-12-04T14:06:55;26.50;;;11.75;;
43670;SDS011;29267;50.906;7.248;2022-12-04T14:09:25;26.80;;;11.68;;
43670;SDS011;29267;50.906;7.248;2022-12-04T14:12:01;29.95;;;10.35;;
43670;SDS011;29267;50.906;7.248;2022-12-04T14:14:30;22.77;;;10.65;;
43670;SDS011;29267;50.906;7.248;2022-12-04T14:17:19;23.27;;;10.02;;
43670;SDS011;29267;50.906;7.248;2022-12-04T14:20:02;21.92;;;9.95;;
43670;SDS011;29267;50.906;7.248;2022-12-04T14:27:33;24.02;;;11.02;;
43670;SDS011;29267;50.906;7.248;2022-12-04T14:30:15;24.00;;;10.45;;
43670;SDS011;29267;50.906;7.248;2022-12-04T14:32:48;27.23;;;10.68;;
43670;SDS011;29267;50.906;7.248;2022-12-04T14:35:15;26.15;;;10.68;;
43670;SDS011;29267;50.906;7.248;2022-12-04T14:37:48;22.15;;;9.52;;
43670;SDS011;29267;50.906;7.248;2022-12-04T14:40:26;24.15;;;11.23;;
43670;SDS011;29267;50.906;7.248;2022-12-04T14:42:55;22.48;;;10.85;;
43670;SDS011;29267;50.906;7.248;2022-12-04T14:48:14;21.80;;;9.75;;
43670;SDS011;29267;50.906;7.248;2022-12-04T14:51:07;26.30;;;9.35;;
43670;SDS011;29267;50.906;7.248;2022-12-04T14:54:03;26.98;;;11.65;;
43670;SDS011;29267;50.906;7.248;2022-12-04T14:59:27;32.28;;;13.20;;
43670;SDS011;29267;50.906;7.248;2022-12-04T15:02:21;22.70;;;10.68;;
43670;SDS011;29267;50.906;7.248;2022-12-04T15:04:55;27.00;;;10.68;;
43670;SDS011;29267;50.906;7.248;2022-12-04T15:07:22;23.42;;;10.18;;
43670;SDS011;29267;50.906;7.248;2022-12-04T15:09:50;21.05;;;9.90;;
43670;SDS011;29267;50.906;7.248;2022-12-04T15:12:41;28.35;;;10.93;;
43670;SDS011;29267;50.906;7.248;2022-12-04T15:17:37;28.65;;;13.07;;
43670;SDS011;29267;50.906;7.248;2022-12-04T15:20:07;29.85;;;11.75;;
43670;SDS011;29267;50.906;7.248;2022-12-04T15:22:35;25.25;;;11.40;;
43670;SDS011;29267;50.906;7.248;2022-12-04T15:25:01;24.27;;;10.40;;
43670;SDS011;29267;50.906;7.248;2022-12-04T15:27:27;27.63;;;11.23;;
43670;SDS011;29267;50.906;7.248;2022-12-04T15:29:53;30.17;;;13.27;;
43670;SDS011;29267;50.906;7.248;2022-12-04T15:32:21;24.38;;;11.45;;
43670;SDS011;29267;50.906;7.248;2022-12-04T15:35:02;26.23;;;10.75;;
43670;SDS011;29267;50.906;7.248;2022-12-04T15:37:33;22.35;;;10.50;;
43670;SDS011;29267;50.906;7.248;2022-12-04T15:39:58;21.10;;;10.10;;
43670;SDS011;29267;50.906;7.248;2022-12-04T15:42:29;26.40;;;10.57;;
43670;SDS011;29267;50.906;7.248;2022-12-04T15:44:59;27.98;;;12.20;;
43670;SDS011;29267;50.906;7.248;2022-12-04T15:47:27;25.13;;;11.82;;
43670;SDS011;29267;50.906;7.248;2022-12-04T15:55:21;28.13;;;11.82;;
43670;SDS011;29267;50.906;7.248;2022-12-04T16:00:28;24.80;;;10.70;;
43670;SDS011;29267;50.906;7.248;2022-12-04T16:02:56;28.58;;;11.95;;
43670;SDS011;29267;50.906;7.248;2022-12-04T16:05:28;24.73;;;10.85;;
43670;SDS011;29267;50.906;7.248;2022-12-04T16:08:02;27.83;;;10.50;;
43670;SDS011;29267;50.906;7.248;2022-12-04T16:10:56;25.92;;;9.98;;
43670;SDS011;29267;50.906;7.248;2022-12-04T16:13:32;25.23;;;10.70;;
43670;SDS011;29267;50.906;7.248;2022-12-04T16:15:59;26.08;;;11.00;;
43670;SDS011;29267;50.906;7.248;2022-12-04T16:18:30;24.65;;;10.30;;
43670;SDS011;29267;50.906;7.248;2022-12-04T16:20:56;28.08;;;12.05;;
43670;SDS011;29267;50.906;7.248;2022-12-04T16:23:23;24.80;;;11.00;;
43670;SDS011;29267;50.906;7.248;2022-12-04T16:25:50;24.40;;;10.88;;
43670;SDS011;29267;50.906;7.248;2022-12-04T16:28:15;20.85;;;10.23;;
43670;SDS011;29267;50.906;7.248;2022-12-04T16:30:41;28.45;;;12.57;;
43670;SDS011;29267;50.906;7.248;2022-12-04T16:33:07;32.05;;;11.98;;
43670;SDS011;29267;50.906;7.248;2022-12-04T16:35:37;25.98;;;11.52;;
43670;SDS011;29267;50.906;7.248;2022-12-04T16:38:02;26.40;;;10.30;;
43670;SDS011;29267;50.906;7.248;2022-12-04T16:40:28;27.20;;;11.85;;
43670;SDS011;29267;50.906;7.248;2022-12-04T16:42:53;32.80;;;14.43;;
43670;SDS011;29267;50.906;7.248;2022-12-04T16:45:20;27.88;;;12.07;;
43670;SDS011;29267;50.906;7.248;2022-12-04T16:47:49;28.88;;;11.85;;
43670;SDS011;29267;50.906;7.248;2022-12-04T16:50:15;30.67;;;13.10;;
43670;SDS011;29267;50.906;7.248;2022-12-04T16:52:40;28.77;;;12.63;;
43670;SDS011;29267;50.906;7.248;2022-12-04T16:55:19;28.73;;;13.40;;
43670;SDS011;29267;50.906;7.248;2022-12-04T16:57:49;57.77;;;21.13;;